首页
METAR-TAF:

METAR-TAF

机场 :

里士满, 弗吉尼亚州, 美国

纬度: 37-24-24N, 经度: 077-31-30W, 海拔: 72米

当前天气观测

该预报发布于30分钟前的23:56 UTC
风速4节,风向北转东北
温度 18°C
湿度 94%
气压 1022 hPa
能見度: 9.7公里
阴天层高于500英尺
轻雾

METAR: KFCI 232356Z AUTO 02004KT 6SM BR OVC005 18/17 A3017 RMK AO2 SLP232 60000 T01780172 10183 20172 51009

时间: 20:26 (00:26 UTC)


TAF: 丢失

超过4000个机场的气象观测和天气预报(METAR&TAF报告)。

可查询的气象台以黄色和红色小点在地图上表示。

将鼠标移到小点上方,可查看气象台名称。

然后点击查看天气观测和预报。

如需切换地图:点击带黑十字的绿色按钮放大地图;点击带横线的绿色按钮缩小地图;或者点击绿色箭头查看邻近地区的地图。


METAR-TAF: